Time;durP1;ratioP1;P1;durP2;ratioP2;P2;SDS_P1;SDS_P2;PMS_P1;PMS_P2;Temp;Humidity;BMP_temperature;BMP_pressure;BME280_temperature;BME280_humidity;BME280_pressure;Samples;Min_cycle;Max_cycle;Signal;HPM_P1;HPM_P2
2022/11/18 00:00:17;;;;;;;;;;;7.10;99.90;;;;;;5053650;28;20277;-68
2022/11/18 00:02:43;;;;;;;;;;;7.10;99.90;;;;;;5048218;28;20424;-68
2022/11/18 00:05:08;;;;;;;;;;;7.10;99.90;;;;;;5053326;28;19932;-68
2022/11/18 00:07:34;;;;;;;;;;;7.10;99.90;;;;;;5057716;28;19928;-68
2022/11/18 00:09:59;;;;;;;;;;;7.10;99.90;;;;;;5054349;28;19928;-69
2022/11/18 00:15:26;;;;;;;;;;;7.10;99.90;;;;;;4975430;28;19926;-68
2022/11/18 00:17:51;;;;;;;;;;;7.00;99.90;;;;;;5035330;28;19920;-68
2022/11/18 00:20:17;;;;;;;;;;;7.00;99.90;;;;;;5051232;28;19925;-69
2022/11/18 00:22:42;;;;;;;;;;;7.10;99.90;;;;;;5054327;28;19921;-68
2022/11/18 00:25:08;;;;;;;;;;;7.10;99.90;;;;;;5055317;28;19921;-68
2022/11/18 00:27:33;;;;;;;;;;;7.10;99.90;;;;;;5051922;28;19947;-68
2022/11/18 00:29:59;;;;;;;;;;;7.10;99.90;;;;;;5077206;28;20013;-68
2022/11/18 00:32:24;;;;;;;;;;;7.10;99.90;;;;;;5037583;28;19955;-68
2022/11/18 00:34:49;;;;;;;;;;;7.10;99.90;;;;;;5052345;28;20289;-68
2022/11/18 00:37:15;;;;;;;;;;;7.10;99.90;;;;;;5051010;28;19933;-68
2022/11/18 00:39:40;;;;;;;;;;;7.00;99.90;;;;;;5051876;28;19920;-68
2022/11/18 00:44:50;;;;;;;;;;;7.00;99.90;;;;;;5048112;28;19929;-68
2022/11/18 00:47:15;;;;;;;;;;;7.10;99.90;;;;;;5049304;28;20421;-68
2022/11/18 00:49:41;;;;;;;;;;;7.00;99.90;;;;;;5051015;28;19920;-68
2022/11/18 00:52:07;;;;;;;;;;;7.00;99.90;;;;;;5054623;22;22433;-66
2022/11/18 00:54:32;;;;;;;;;;;7.00;99.90;;;;;;5027799;28;19929;-66
2022/11/18 00:56:57;;;;;;;;;;;7.10;99.90;;;;;;5007420;28;19921;-66
2022/11/18 00:59:23;;;;;;;;;;;7.10;99.90;;;;;;4992968;28;19944;-66
2022/11/18 01:01:48;;;;;;;;;;;7.00;99.90;;;;;;5013059;28;19921;-66
2022/11/18 01:04:14;;;;;;;;;;;7.00;99.90;;;;;;5000740;28;19929;-66
2022/11/18 01:06:40;;;;;;;;;;;7.00;99.90;;;;;;5016309;28;19984;-66
2022/11/18 01:09:05;;;;;;;;;;;7.00;99.90;;;;;;5001614;28;19921;-66
2022/11/18 01:14:15;;;;;;;;;;;7.00;99.90;;;;;;5000714;28;19929;-66
2022/11/18 01:16:40;;;;;;;;;;;7.00;99.90;;;;;;5003932;28;19921;-66
2022/11/18 01:19:06;;;;;;;;;;;7.00;99.90;;;;;;5002072;28;19975;-66
2022/11/18 01:21:31;;;;;;;;;;;7.00;99.90;;;;;;5023466;28;19921;-66
2022/11/18 01:23:57;;;;;;;;;;;7.00;99.90;;;;;;5023542;28;20446;-66
2022/11/18 01:26:22;;;;;;;;;;;7.00;99.90;;;;;;5024954;28;19998;-66
2022/11/18 01:28:48;;;;;;;;;;;7.00;99.90;;;;;;5010190;28;20374;-66
2022/11/18 01:31:15;;;;;;;;;;;7.00;99.90;;;;;;5007779;28;20015;-66
2022/11/18 01:33:41;;;;;;;;;;;7.00;99.90;;;;;;5018231;28;19932;-67
2022/11/18 01:36:17;;;;;;;;;;;7.00;99.90;;;;;;5000474;28;19921;-66
2022/11/18 01:38:43;;;;;;;;;;;7.00;99.90;;;;;;5013939;28;19953;-66
2022/11/18 01:41:08;;;;;;;;;;;6.90;99.90;;;;;;5000541;28;19965;-66
2022/11/18 01:43:52;;;;;;;;;;;6.90;99.90;;;;;;5002112;28;20007;-66
2022/11/18 01:46:19;;;;;;;;;;;6.90;99.90;;;;;;5017492;28;19936;-66
2022/11/18 01:48:46;;;;;;;;;;;6.90;99.90;;;;;;5025585;28;19925;-66
2022/11/18 01:51:13;;;;;;;;;;;6.90;99.90;;;;;;5026965;28;20444;-66
2022/11/18 01:53:50;;;;;;;;;;;6.90;99.90;;;;;;5025135;28;20275;-66
2022/11/18 01:56:25;;;;;;;;;;;7.00;99.90;;;;;;5028058;28;20009;-66
2022/11/18 01:58:52;;;;;;;;;;;6.90;99.90;;;;;;5010643;28;19921;-66
2022/11/18 02:01:18;;;;;;;;;;;7.00;99.90;;;;;;5025337;28;20114;-66
2022/11/18 02:03:44;;;;;;;;;;;6.90;99.90;;;;;;5009260;28;20016;-66
2022/11/18 02:06:10;;;;;;;;;;;7.00;99.90;;;;;;5021761;28;19929;-66
2022/11/18 02:08:36;;;;;;;;;;;7.00;99.90;;;;;;5001849;28;19928;-66
2022/11/18 02:11:02;;;;;;;;;;;6.90;99.90;;;;;;5018741;28;19972;-66
2022/11/18 02:13:28;;;;;;;;;;;6.90;99.90;;;;;;5017047;28;19935;-66
2022/11/18 02:16:06;;;;;;;;;;;6.90;99.90;;;;;;5018277;28;20326;-66
2022/11/18 02:18:40;;;;;;;;;;;6.90;99.90;;;;;;5016633;28;19943;-66
2022/11/18 02:21:25;;;;;;;;;;;6.90;99.90;;;;;;5014709;28;19965;-66
2022/11/18 02:24:00;;;;;;;;;;;6.90;99.90;;;;;;5025108;28;19932;-66
2022/11/18 02:26:44;;;;;;;;;;;6.90;99.90;;;;;;5016572;28;19925;-66
2022/11/18 02:29:13;;;;;;;;;;;6.90;99.90;;;;;;5009949;28;19975;-66
2022/11/18 02:31:57;;;;;;;;;;;6.90;99.90;;;;;;4997912;28;20379;-66
2022/11/18 02:34:38;;;;;;;;;;;7.00;99.90;;;;;;5028188;28;19921;-66
2022/11/18 02:37:17;;;;;;;;;;;6.90;99.90;;;;;;5002944;28;20256;-66
2022/11/18 02:39:54;;;;;;;;;;;6.90;99.90;;;;;;5027224;28;19968;-66
2022/11/18 02:42:21;;;;;;;;;;;6.90;99.90;;;;;;5020925;28;19928;-66
2022/11/18 02:44:51;;;;;;;;;;;6.90;99.90;;;;;;5026517;28;19921;-66
2022/11/18 02:47:17;;;;;;;;;;;6.90;99.90;;;;;;5013131;28;20330;-66
2022/11/18 02:49:47;;;;;;;;;;;6.90;99.90;;;;;;5025441;28;19932;-66
2022/11/18 02:52:14;;;;;;;;;;;6.90;99.90;;;;;;5032330;28;19956;-66
2022/11/18 02:54:40;;;;;;;;;;;6.80;99.90;;;;;;5014120;28;20362;-66
2022/11/18 02:57:06;;;;;;;;;;;6.90;99.90;;;;;;5025832;28;20362;-66
2022/11/18 02:59:32;;;;;;;;;;;6.80;99.90;;;;;;5021370;28;19925;-66
2022/11/18 03:01:58;;;;;;;;;;;6.80;99.90;;;;;;5012651;28;19971;-66
2022/11/18 03:04:24;;;;;;;;;;;6.90;99.90;;;;;;4997568;28;19921;-66
2022/11/18 03:06:59;;;;;;;;;;;6.80;99.90;;;;;;4998086;28;19955;-66
2022/11/18 03:09:33;;;;;;;;;;;6.90;99.90;;;;;;4999987;28;19976;-66
2022/11/18 03:12:14;;;;;;;;;;;6.90;99.90;;;;;;5027677;28;20307;-66
2022/11/18 03:14:58;;;;;;;;;;;6.90;99.90;;;;;;5002650;28;19984;-66
2022/11/18 03:17:42;;;;;;;;;;;6.90;99.90;;;;;;5015488;28;19929;-67
2022/11/18 03:20:16;;;;;;;;;;;6.90;99.90;;;;;;5022101;28;19926;-66
2022/11/18 03:22:44;;;;;;;;;;;6.90;99.90;;;;;;5011110;28;19921;-66
2022/11/18 03:25:18;;;;;;;;;;;6.80;99.90;;;;;;5015201;28;19929;-66
2022/11/18 03:27:57;;;;;;;;;;;6.90;99.90;;;;;;5003609;28;20424;-66
2022/11/18 03:30:23;;;;;;;;;;;6.80;99.90;;;;;;5027786;28;20287;-66
2022/11/18 03:32:52;;;;;;;;;;;7.00;99.90;;;;;;5008978;28;19922;-66
2022/11/18 03:35:21;;;;;;;;;;;6.80;99.90;;;;;;5027401;28;19935;-66
2022/11/18 03:37:49;;;;;;;;;;;6.90;99.90;;;;;;5015182;28;19928;-66
2022/11/18 03:40:18;;;;;;;;;;;6.90;99.90;;;;;;5027452;28;19946;-66
2022/11/18 03:42:48;;;;;;;;;;;6.80;99.90;;;;;;5021673;28;20425;-66
2022/11/18 03:45:16;;;;;;;;;;;6.90;99.90;;;;;;5025796;28;19927;-66
2022/11/18 03:47:43;;;;;;;;;;;6.90;99.90;;;;;;5004716;28;19925;-66
2022/11/18 03:50:15;;;;;;;;;;;6.90;99.90;;;;;;5026875;28;19929;-66
2022/11/18 03:52:41;;;;;;;;;;;6.90;99.90;;;;;;5025191;28;19932;-66
2022/11/18 03:55:18;;;;;;;;;;;6.90;99.90;;;;;;5021695;28;20283;-71
2022/11/18 03:58:04;;;;;;;;;;;6.80;99.90;;;;;;5020856;28;19933;-65
2022/11/18 04:00:32;;;;;;;;;;;6.80;99.90;;;;;;5010628;28;19929;-66
2022/11/18 04:02:58;;;;;;;;;;;6.80;99.90;;;;;;5026422;28;20030;-66
2022/11/18 04:05:24;;;;;;;;;;;6.80;99.90;;;;;;5011764;28;20646;-66
2022/11/18 04:08:01;;;;;;;;;;;6.70;99.90;;;;;;5006240;28;19951;-66
2022/11/18 04:10:30;;;;;;;;;;;6.70;99.90;;;;;;5008984;28;20341;-66
2022/11/18 04:13:18;;;;;;;;;;;6.70;99.90;;;;;;5012724;28;20012;-67
2022/11/18 04:15:43;;;;;;;;;;;6.70;99.90;;;;;;5025480;28;19928;-67
2022/11/18 04:18:09;;;;;;;;;;;6.70;99.90;;;;;;5025681;28;20374;-67
2022/11/18 04:20:36;;;;;;;;;;;6.70;99.90;;;;;;5000902;28;19980;-67
2022/11/18 04:23:02;;;;;;;;;;;6.70;99.90;;;;;;5024593;28;20346;-67
2022/11/18 04:25:28;;;;;;;;;;;6.70;99.90;;;;;;5022179;28;20294;-67
2022/11/18 04:27:54;;;;;;;;;;;6.70;99.90;;;;;;5001755;28;19935;-67
2022/11/18 04:30:19;;;;;;;;;;;6.70;99.90;;;;;;5013112;28;19921;-67
2022/11/18 04:32:45;;;;;;;;;;;6.70;99.90;;;;;;4984308;28;21262;-66
2022/11/18 04:35:10;;;;;;;;;;;6.70;99.90;;;;;;5006698;28;19957;-67
2022/11/18 04:37:36;;;;;;;;;;;6.70;99.90;;;;;;4991782;28;19995;-67
2022/11/18 04:40:02;;;;;;;;;;;6.70;99.90;;;;;;5003565;28;19956;-67
2022/11/18 04:42:27;;;;;;;;;;;6.70;99.90;;;;;;5012626;28;19940;-67
2022/11/18 04:44:52;;;;;;;;;;;6.70;99.90;;;;;;5001212;28;20274;-67
2022/11/18 04:47:18;;;;;;;;;;;6.70;99.90;;;;;;4995524;28;19925;-67
2022/11/18 04:49:43;;;;;;;;;;;6.70;99.90;;;;;;5016298;28;19929;-67
2022/11/18 04:52:11;;;;;;;;;;;6.60;99.90;;;;;;5015064;28;20021;-67
2022/11/18 04:54:36;;;;;;;;;;;6.60;99.90;;;;;;5000617;28;20693;-67
2022/11/18 04:57:02;;;;;;;;;;;6.60;99.90;;;;;;5031218;28;19963;-67
2022/11/18 04:59:28;;;;;;;;;;;6.70;99.90;;;;;;4996035;28;19926;-67
2022/11/18 05:01:54;;;;;;;;;;;6.60;99.90;;;;;;5013856;28;19921;-67
2022/11/18 05:04:21;;;;;;;;;;;6.60;99.90;;;;;;4996351;28;19925;-67
2022/11/18 05:06:46;;;;;;;;;;;6.70;99.90;;;;;;5016256;28;19922;-66
2022/11/18 05:09:12;;;;;;;;;;;6.70;99.90;;;;;;5008800;28;19927;-67
2022/11/18 05:14:24;;;;;;;;;;;6.70;99.90;;;;;;5008872;28;20016;-67
2022/11/18 05:16:49;;;;;;;;;;;6.70;99.90;;;;;;5000507;28;19932;-67
2022/11/18 05:19:15;;;;;;;;;;;6.70;99.90;;;;;;5003655;28;19925;-66
2022/11/18 05:21:40;;;;;;;;;;;6.70;99.90;;;;;;5012471;28;19925;-67
2022/11/18 05:24:06;;;;;;;;;;;6.60;99.90;;;;;;5020781;28;19928;-66
2022/11/18 05:26:31;;;;;;;;;;;6.60;99.90;;;;;;5026367;28;20378;-66
2022/11/18 05:28:57;;;;;;;;;;;6.60;99.90;;;;;;5011481;28;19996;-66
2022/11/18 05:31:22;;;;;;;;;;;6.60;99.90;;;;;;5004988;28;20066;-66
2022/11/18 05:33:48;;;;;;;;;;;6.60;99.90;;;;;;5025058;28;19933;-66
2022/11/18 05:36:14;;;;;;;;;;;6.50;99.90;;;;;;5006458;28;19982;-67
2022/11/18 05:38:40;;;;;;;;;;;6.60;99.90;;;;;;5025801;28;19975;-67
2022/11/18 05:41:06;;;;;;;;;;;6.60;99.90;;;;;;5007889;28;19921;-66
2022/11/18 05:43:32;;;;;;;;;;;6.50;99.90;;;;;;5014442;28;19933;-66
2022/11/18 05:45:58;;;;;;;;;;;6.50;99.90;;;;;;5019132;28;19930;-66
2022/11/18 05:48:23;;;;;;;;;;;6.40;99.90;;;;;;5024447;28;19945;-66
2022/11/18 05:50:50;;;;;;;;;;;6.40;99.90;;;;;;5017326;28;19991;-66
2022/11/18 05:53:16;;;;;;;;;;;6.50;99.90;;;;;;5002486;28;20359;-66
2022/11/18 05:56:02;;;;;;;;;;;6.50;99.90;;;;;;5028875;28;20015;-66
2022/11/18 05:58:28;;;;;;;;;;;6.40;99.90;;;;;;4999106;28;20416;-66
2022/11/18 06:00:55;;;;;;;;;;;6.40;99.90;;;;;;5001088;28;19964;-66
2022/11/18 06:03:23;;;;;;;;;;;6.40;99.90;;;;;;5028060;28;20446;-66
2022/11/18 06:05:51;;;;;;;;;;;6.40;99.90;;;;;;5009872;28;19929;-66
2022/11/18 06:08:18;;;;;;;;;;;6.40;99.90;;;;;;5022310;28;19929;-66
2022/11/18 06:10:44;;;;;;;;;;;6.40;99.90;;;;;;5015800;28;19925;-66
2022/11/18 06:13:13;;;;;;;;;;;6.40;99.90;;;;;;5014071;28;20700;-67
2022/11/18 06:15:41;;;;;;;;;;;6.40;99.90;;;;;;5006264;28;19925;-65
2022/11/18 06:18:11;;;;;;;;;;;6.40;99.90;;;;;;5018368;28;19921;-66
2022/11/18 06:20:38;;;;;;;;;;;6.40;99.90;;;;;;5021220;28;20385;-66
2022/11/18 06:23:04;;;;;;;;;;;6.30;99.90;;;;;;5003156;28;19991;-66
2022/11/18 06:25:29;;;;;;;;;;;6.40;99.90;;;;;;4994506;28;19964;-66
2022/11/18 06:27:56;;;;;;;;;;;6.40;99.90;;;;;;4998748;28;19967;-66
2022/11/18 06:30:21;;;;;;;;;;;6.40;99.90;;;;;;5019050;28;19925;-66
2022/11/18 06:32:47;;;;;;;;;;;6.30;99.90;;;;;;5004123;28;19932;-66
2022/11/18 06:35:12;;;;;;;;;;;6.30;99.90;;;;;;5004420;28;19925;-66
2022/11/18 06:37:38;;;;;;;;;;;6.40;99.90;;;;;;5019069;28;19921;-66
2022/11/18 06:40:04;;;;;;;;;;;6.40;99.90;;;;;;5011219;28;19971;-66
2022/11/18 06:45:13;;;;;;;;;;;6.30;99.90;;;;;;5023716;28;19933;-66
2022/11/18 06:47:39;;;;;;;;;;;6.30;99.90;;;;;;5010921;28;19926;-66
2022/11/18 06:50:04;;;;;;;;;;;6.30;99.90;;;;;;5001574;28;20011;-66
2022/11/18 06:52:30;;;;;;;;;;;6.30;99.90;;;;;;5011200;28;20287;-66
2022/11/18 06:54:56;;;;;;;;;;;6.40;99.90;;;;;;5024684;28;20014;-66
2022/11/18 06:57:21;;;;;;;;;;;6.40;99.90;;;;;;5006467;28;19975;-66
2022/11/18 06:59:47;;;;;;;;;;;6.30;99.90;;;;;;5002614;28;20011;-67
2022/11/18 07:02:12;;;;;;;;;;;6.30;99.90;;;;;;5006413;28;19931;-67
2022/11/18 07:04:39;;;;;;;;;;;6.30;99.90;;;;;;5010069;28;20299;-67
2022/11/18 07:07:05;;;;;;;;;;;6.30;99.90;;;;;;5005252;28;19922;-67
2022/11/18 07:09:31;;;;;;;;;;;6.30;99.90;;;;;;5023683;28;19925;-67
2022/11/18 07:11:56;;;;;;;;;;;6.30;99.90;;;;;;5019191;28;19929;-67
2022/11/18 07:14:22;;;;;;;;;;;6.30;99.90;;;;;;5021649;28;19925;-67
2022/11/18 07:16:47;;;;;;;;;;;6.30;99.90;;;;;;5017417;28;19968;-66
2022/11/18 07:19:13;;;;;;;;;;;6.40;99.90;;;;;;5027314;28;19928;-66
2022/11/18 07:21:39;;;;;;;;;;;6.30;99.90;;;;;;5024794;28;20028;-67
2022/11/18 07:24:05;;;;;;;;;;;6.30;99.90;;;;;;5013583;28;19929;-67
2022/11/18 07:26:34;;;;;;;;;;;6.30;99.90;;;;;;5024293;28;20259;-67
2022/11/18 07:29:00;;;;;;;;;;;6.40;99.90;;;;;;5005537;28;19921;-67
2022/11/18 07:31:25;;;;;;;;;;;6.30;99.90;;;;;;4998927;28;19971;-67
2022/11/18 07:33:54;;;;;;;;;;;6.30;99.90;;;;;;4986650;28;19960;-67
2022/11/18 07:36:20;;;;;;;;;;;6.20;99.90;;;;;;5007192;28;19945;-67
2022/11/18 07:38:46;;;;;;;;;;;6.30;99.90;;;;;;5027353;28;19925;-67
2022/11/18 07:41:13;;;;;;;;;;;6.20;99.90;;;;;;5004193;28;19921;-67
2022/11/18 07:43:39;;;;;;;;;;;6.30;99.90;;;;;;5014614;28;20028;-67
2022/11/18 07:46:15;;;;;;;;;;;6.20;99.90;;;;;;5010810;28;20036;-67
2022/11/18 07:48:41;;;;;;;;;;;6.30;99.90;;;;;;5003898;28;20295;-67
2022/11/18 07:51:07;;;;;;;;;;;6.30;99.90;;;;;;5022001;28;20553;-67
2022/11/18 07:53:33;;;;;;;;;;;6.30;99.90;;;;;;5023710;28;19925;-67
2022/11/18 07:55:59;;;;;;;;;;;6.20;99.90;;;;;;5023936;28;19938;-67
2022/11/18 07:58:24;;;;;;;;;;;6.10;99.90;;;;;;5011958;28;20007;-67
2022/11/18 08:00:50;;;;;;;;;;;6.20;99.90;;;;;;5010218;28;20429;-67
2022/11/18 08:03:15;;;;;;;;;;;6.20;99.90;;;;;;5024273;28;19928;-68
2022/11/18 08:05:40;;;;;;;;;;;6.20;99.90;;;;;;5028938;28;19993;-68
2022/11/18 08:08:06;;;;;;;;;;;6.20;99.90;;;;;;5032640;28;19966;-67
2022/11/18 08:10:31;;;;;;;;;;;6.20;99.90;;;;;;5026339;28;19944;-67
2022/11/18 08:12:57;;;;;;;;;;;6.20;99.90;;;;;;5029565;28;19971;-67
2022/11/18 08:15:23;;;;;;;;;;;6.30;99.90;;;;;;5013628;28;20417;-68
2022/11/18 08:17:48;;;;;;;;;;;6.30;99.90;;;;;;5013146;28;19921;-67
2022/11/18 08:20:14;;;;;;;;;;;6.30;99.90;;;;;;5011907;28;20383;-67
2022/11/18 08:22:39;;;;;;;;;;;6.30;99.90;;;;;;5007327;28;19925;-67
2022/11/18 08:25:05;;;;;;;;;;;6.30;99.90;;;;;;5000074;28;19948;-67
2022/11/18 08:27:31;;;;;;;;;;;6.20;99.90;;;;;;5009818;28;19928;-67
2022/11/18 08:29:56;;;;;;;;;;;6.30;99.90;;;;;;5027250;28;19921;-67
2022/11/18 08:32:22;;;;;;;;;;;6.40;99.90;;;;;;5002120;28;20709;-67
2022/11/18 08:34:47;;;;;;;;;;;6.30;99.90;;;;;;5029125;28;20017;-67
2022/11/18 08:37:13;;;;;;;;;;;6.30;99.90;;;;;;5008461;28;19925;-67
2022/11/18 08:39:38;;;;;;;;;;;6.20;99.90;;;;;;5006933;28;19971;-67
2022/11/18 08:42:03;;;;;;;;;;;6.20;99.90;;;;;;5007837;28;19921;-67
2022/11/18 08:44:32;;;;;;;;;;;6.30;99.90;;;;;;5020677;28;20048;-67
2022/11/18 08:46:57;;;;;;;;;;;6.30;99.90;;;;;;5030348;28;19933;-67
2022/11/18 08:49:23;;;;;;;;;;;6.30;99.90;;;;;;5019228;28;20029;-67
2022/11/18 08:51:48;;;;;;;;;;;6.30;99.90;;;;;;5017440;28;20287;-67
2022/11/18 08:54:14;;;;;;;;;;;6.20;99.90;;;;;;5022401;28;19926;-67
2022/11/18 08:56:39;;;;;;;;;;;6.20;99.90;;;;;;4998535;28;19921;-67
2022/11/18 08:59:05;;;;;;;;;;;6.20;99.90;;;;;;5026422;28;19975;-67
2022/11/18 09:01:31;;;;;;;;;;;6.30;99.90;;;;;;5019824;28;19925;-67
2022/11/18 09:03:56;;;;;;;;;;;6.30;99.90;;;;;;5015286;28;19926;-67
2022/11/18 09:06:23;;;;;;;;;;;6.20;99.90;;;;;;5030931;28;20393;-67
2022/11/18 09:08:49;;;;;;;;;;;6.20;99.90;;;;;;5023238;28;19932;-67
2022/11/18 09:11:16;;;;;;;;;;;6.20;99.90;;;;;;5022189;28;19921;-67
2022/11/18 09:13:42;;;;;;;;;;;6.20;99.90;;;;;;5014136;28;19983;-67
2022/11/18 09:16:08;;;;;;;;;;;6.30;99.90;;;;;;5013920;28;19929;-67
2022/11/18 09:18:33;;;;;;;;;;;6.30;99.90;;;;;;5002202;28;19921;-67
2022/11/18 09:21:00;;;;;;;;;;;6.40;99.90;;;;;;4998306;28;19928;-67
2022/11/18 09:23:26;;;;;;;;;;;6.30;99.90;;;;;;5006356;28;19921;-67
2022/11/18 09:25:57;;;;;;;;;;;6.30;99.90;;;;;;5018170;28;19929;-67
2022/11/18 09:28:23;;;;;;;;;;;6.40;99.90;;;;;;5022837;28;19925;-67
2022/11/18 09:30:48;;;;;;;;;;;6.30;99.90;;;;;;4985321;28;19921;-67
2022/11/18 09:33:15;;;;;;;;;;;6.30;99.90;;;;;;5016183;28;20375;-67
2022/11/18 09:35:41;;;;;;;;;;;6.30;99.90;;;;;;5023718;28;20008;-67
2022/11/18 09:38:06;;;;;;;;;;;6.30;99.90;;;;;;5024667;28;20005;-67
2022/11/18 09:40:33;;;;;;;;;;;6.30;99.90;;;;;;5000272;28;19928;-67
2022/11/18 09:43:09;;;;;;;;;;;6.10;99.90;;;;;;5017093;28;19979;-67
2022/11/18 09:45:40;;;;;;;;;;;6.20;99.90;;;;;;5003011;28;19928;-67
2022/11/18 09:48:14;;;;;;;;;;;6.20;99.90;;;;;;5027099;28;19921;-67
2022/11/18 09:50:39;;;;;;;;;;;6.20;99.90;;;;;;5031045;28;20359;-65
2022/11/18 09:53:14;;;;;;;;;;;6.20;99.90;;;;;;5013421;28;19968;-66
2022/11/18 09:55:40;;;;;;;;;;;6.30;99.90;;;;;;5024030;28;19921;-66
2022/11/18 09:58:06;;;;;;;;;;;6.30;99.90;;;;;;4987748;28;19929;-67
2022/11/18 10:00:32;;;;;;;;;;;6.20;99.90;;;;;;5018034;28;19925;-67
2022/11/18 10:03:06;;;;;;;;;;;6.30;99.90;;;;;;5017508;28;20287;-67
2022/11/18 10:05:39;;;;;;;;;;;6.30;99.90;;;;;;5012294;28;19984;-67
2022/11/18 10:08:14;;;;;;;;;;;6.20;99.90;;;;;;5000175;28;19925;-67
2022/11/18 10:10:55;;;;;;;;;;;6.30;99.90;;;;;;5018502;28;19929;-67
2022/11/18 10:13:26;;;;;;;;;;;6.20;99.90;;;;;;5017485;28;19922;-67
2022/11/18 10:15:54;;;;;;;;;;;6.20;99.90;;;;;;5005465;28;19921;-67
2022/11/18 10:18:41;;;;;;;;;;;6.20;99.90;;;;;;5032871;28;19982;-67
2022/11/18 10:21:17;;;;;;;;;;;6.30;99.90;;;;;;5028317;28;19930;-67
2022/11/18 10:23:48;;;;;;;;;;;6.10;99.90;;;;;;5023700;28;19932;-67
2022/11/18 10:26:13;;;;;;;;;;;6.10;99.90;;;;;;5020788;28;19921;-67
2022/11/18 10:28:39;;;;;;;;;;;6.10;99.90;;;;;;5024679;28;20394;-67
2022/11/18 10:31:09;;;;;;;;;;;6.20;99.90;;;;;;5023046;28;19972;-67
2022/11/18 10:33:35;;;;;;;;;;;6.10;99.90;;;;;;5008582;28;20260;-67
2022/11/18 10:36:15;;;;;;;;;;;6.10;99.90;;;;;;5031249;28;19984;-67
2022/11/18 10:38:41;;;;;;;;;;;6.10;99.90;;;;;;5027662;28;20004;-67
2022/11/18 10:41:10;;;;;;;;;;;6.00;99.90;;;;;;5007150;28;21402;-67
2022/11/18 10:43:48;;;;;;;;;;;6.00;99.90;;;;;;5028467;28;19922;-67
2022/11/18 10:46:18;;;;;;;;;;;6.10;99.90;;;;;;4999439;28;19960;-67
2022/11/18 10:48:43;;;;;;;;;;;6.10;99.90;;;;;;4999172;28;19928;-66
2022/11/18 10:51:20;;;;;;;;;;;6.10;99.90;;;;;;5000437;28;19925;-67
2022/11/18 10:53:45;;;;;;;;;;;6.10;99.90;;;;;;5007858;28;20013;-67
2022/11/18 10:56:12;;;;;;;;;;;6.10;99.90;;;;;;4992345;28;20317;-67
2022/11/18 10:58:42;;;;;;;;;;;6.00;99.90;;;;;;5023306;28;19979;-67
2022/11/18 11:01:23;;;;;;;;;;;6.00;99.90;;;;;;5015958;28;19929;-67
2022/11/18 11:03:57;;;;;;;;;;;5.90;99.90;;;;;;4996652;28;19921;-67
2022/11/18 11:06:26;;;;;;;;;;;6.00;99.90;;;;;;5025787;28;19921;-67
2022/11/18 11:08:52;;;;;;;;;;;6.00;99.90;;;;;;5016087;28;20077;-67
2022/11/18 11:11:27;;;;;;;;;;;5.90;99.90;;;;;;5030423;28;19940;-67
2022/11/18 11:14:00;;;;;;;;;;;5.90;99.90;;;;;;5022922;28;19922;-67
2022/11/18 11:16:27;;;;;;;;;;;6.00;99.90;;;;;;5028547;28;20272;-67
2022/11/18 11:18:55;;;;;;;;;;;5.70;99.90;;;;;;5032243;28;19975;-67
2022/11/18 11:21:24;;;;;;;;;;;5.80;99.90;;;;;;5009402;28;19929;-67
2022/11/18 11:23:50;;;;;;;;;;;5.70;99.90;;;;;;5022803;28;20398;-67
2022/11/18 11:26:38;;;;;;;;;;;5.70;99.90;;;;;;5001960;28;19921;-67
2022/11/18 11:29:19;;;;;;;;;;;5.80;99.90;;;;;;5020288;28;20429;-67
2022/11/18 11:32:00;;;;;;;;;;;5.80;99.90;;;;;;5027358;28;19925;-67
2022/11/18 11:34:25;;;;;;;;;;;5.80;99.90;;;;;;5027014;28;19925;-67
2022/11/18 11:37:13;;;;;;;;;;;5.60;99.90;;;;;;5016305;28;20347;-67
2022/11/18 11:40:00;;;;;;;;;;;5.60;99.90;;;;;;5027116;28;19921;-67
2022/11/18 11:42:37;;;;;;;;;;;5.50;99.90;;;;;;5031933;28;19971;-67
2022/11/18 11:45:15;;;;;;;;;;;5.50;99.90;;;;;;5025160;28;20316;-67
2022/11/18 11:47:48;;;;;;;;;;;5.50;99.90;;;;;;4996997;28;19969;-67
2022/11/18 11:50:52;;;;;;;;;;;5.60;99.90;;;;;;5020734;28;20303;-67
2022/11/18 11:53:17;;;;;;;;;;;5.60;99.90;;;;;;5031415;28;19933;-67
2022/11/18 11:56:02;;;;;;;;;;;5.50;99.90;;;;;;5014111;28;19925;-67
2022/11/18 11:58:39;;;;;;;;;;;5.40;99.90;;;;;;5027561;28;19920;-67
2022/11/18 12:01:14;;;;;;;;;;;5.40;99.90;;;;;;5023093;28;19928;-67
2022/11/18 12:03:45;;;;;;;;;;;5.40;99.90;;;;;;5019625;28;19925;-67
2022/11/18 12:06:11;;;;;;;;;;;5.30;99.90;;;;;;5020262;28;19925;-67
2022/11/18 12:08:37;;;;;;;;;;;5.40;99.90;;;;;;4979602;28;20647;-67
2022/11/18 12:11:14;;;;;;;;;;;5.40;99.90;;;;;;5008097;28;19975;-67
2022/11/18 12:13:46;;;;;;;;;;;5.40;99.90;;;;;;5032392;28;20563;-67
2022/11/18 12:16:32;;;;;;;;;;;5.30;99.90;;;;;;5018753;28;19928;-67
2022/11/18 12:18:58;;;;;;;;;;;5.30;99.90;;;;;;5030342;28;19925;-67
2022/11/18 12:21:43;;;;;;;;;;;5.30;99.90;;;;;;5014679;28;19932;-67
2022/11/18 12:24:32;;;;;;;;;;;5.30;99.90;;;;;;5003069;28;19921;-67
2022/11/18 12:26:58;;;;;;;;;;;5.10;99.90;;;;;;5001490;28;20553;-66
2022/11/18 12:29:26;;;;;;;;;;;5.20;99.90;;;;;;5019456;28;20315;-66
2022/11/18 12:31:55;;;;;;;;;;;5.20;99.90;;;;;;5026564;28;19925;-66
2022/11/18 12:34:24;;;;;;;;;;;5.10;99.90;;;;;;5007488;28;19925;-66
2022/11/18 12:36:50;;;;;;;;;;;5.20;99.90;;;;;;5025889;28;19932;-66
2022/11/18 12:39:24;;;;;;;;;;;5.10;99.90;;;;;;5008353;28;19929;-66
2022/11/18 12:44:36;;;;;;;;;;;5.30;99.90;;;;;;5014426;28;20297;-66
2022/11/18 12:47:02;;;;;;;;;;;5.40;99.90;;;;;;4998163;28;20012;-66
2022/11/18 12:49:28;;;;;;;;;;;5.40;99.90;;;;;;5028520;28;19973;-66
2022/11/18 12:51:54;;;;;;;;;;;5.40;99.90;;;;;;5001493;28;19987;-66
2022/11/18 12:54:26;;;;;;;;;;;5.30;99.90;;;;;;5023280;28;19991;-66
2022/11/18 12:56:52;;;;;;;;;;;5.30;99.90;;;;;;5021974;28;19922;-66
2022/11/18 12:59:32;;;;;;;;;;;5.20;99.90;;;;;;5022366;28;19983;-66
2022/11/18 13:02:10;;;;;;;;;;;5.20;99.90;;;;;;5013359;28;19980;-66
2022/11/18 13:04:36;;;;;;;;;;;5.30;99.90;;;;;;5000729;28;19975;-66
2022/11/18 13:07:03;;;;;;;;;;;5.20;99.90;;;;;;5030579;22;19919;-67
2022/11/18 13:09:31;;;;;;;;;;;5.20;99.90;;;;;;5083467;28;20019;-67
2022/11/18 13:12:04;;;;;;;;;;;5.20;99.90;;;;;;5093477;28;19927;-68
2022/11/18 13:20:17;;;;;;;;;;;5.20;99.90;;;;;;5113867;28;19920;-68
2022/11/18 13:25:32;;;;;;;;;;;5.10;99.90;;;;;;5114267;28;19923;-68
2022/11/18 13:28:02;;;;;;;;;;;5.20;99.90;;;;;;5113739;28;19924;-68
2022/11/18 13:30:29;;;;;;;;;;;5.10;99.90;;;;;;5114020;28;19919;-68
2022/11/18 13:32:56;;;;;;;;;;;5.00;99.90;;;;;;5115418;28;19941;-69
2022/11/18 13:35:22;;;;;;;;;;;5.00;99.90;;;;;;5113722;28;19923;-68
2022/11/18 13:37:52;;;;;;;;;;;5.00;99.90;;;;;;5113748;28;19919;-68
2022/11/18 13:40:23;;;;;;;;;;;5.00;99.90;;;;;;5102155;28;20011;-68
2022/11/18 13:42:48;;;;;;;;;;;4.90;99.90;;;;;;5094857;28;19951;-68
2022/11/18 13:45:14;;;;;;;;;;;4.80;99.90;;;;;;5097556;28;19967;-68
2022/11/18 13:47:42;;;;;;;;;;;4.80;99.90;;;;;;5112920;28;19920;-69
2022/11/18 13:50:22;;;;;;;;;;;4.80;99.90;;;;;;5118385;28;20234;-68
2022/11/18 13:52:56;;;;;;;;;;;4.90;99.90;;;;;;5098681;28;19927;-68
2022/11/18 13:55:30;;;;;;;;;;;4.80;99.90;;;;;;5098668;28;19971;-68
2022/11/18 13:58:03;;;;;;;;;;;4.90;99.90;;;;;;5097048;28;19999;-69
2022/11/18 14:00:30;;;;;;;;;;;4.70;99.90;;;;;;5097291;28;19981;-69
2022/11/18 14:02:58;;;;;;;;;;;4.70;99.90;;;;;;5099111;28;19924;-68
2022/11/18 14:05:24;;;;;;;;;;;4.70;99.90;;;;;;5119226;28;19919;-68
2022/11/18 14:08:18;;;;;;;;;;;4.70;99.90;;;;;;5117258;28;20000;-68
2022/11/18 14:10:44;;;;;;;;;;;4.70;99.90;;;;;;5095723;28;19932;-68
2022/11/18 14:13:28;;;;;;;;;;;4.60;99.90;;;;;;5116928;28;19969;-68
2022/11/18 14:15:55;;;;;;;;;;;4.70;99.90;;;;;;5089551;28;19920;-68
2022/11/18 14:18:26;;;;;;;;;;;4.60;99.90;;;;;;5096690;28;19920;-68
2022/11/18 14:20:53;;;;;;;;;;;4.50;99.90;;;;;;5112368;28;19920;-68
2022/11/18 14:23:21;;;;;;;;;;;4.50;99.90;;;;;;5117140;28;19919;-69
2022/11/18 14:25:47;;;;;;;;;;;4.40;99.90;;;;;;5117543;28;19920;-68
2022/11/18 14:28:15;;;;;;;;;;;4.40;99.90;;;;;;5109270;28;19984;-69
2022/11/18 14:30:53;;;;;;;;;;;4.30;99.90;;;;;;5096365;28;19920;-68
2022/11/18 14:33:26;;;;;;;;;;;4.50;99.90;;;;;;5083003;28;19967;-68
2022/11/18 14:35:59;;;;;;;;;;;4.40;99.90;;;;;;5102554;28;19920;-68
2022/11/18 14:38:28;;;;;;;;;;;4.50;99.90;;;;;;5096361;28;19981;-69
2022/11/18 14:40:57;;;;;;;;;;;4.30;99.90;;;;;;5097185;28;19927;-69
2022/11/18 14:43:23;;;;;;;;;;;4.30;99.90;;;;;;5116527;28;19964;-69
2022/11/18 14:45:49;;;;;;;;;;;4.20;99.90;;;;;;5116374;28;20018;-68
2022/11/18 14:48:16;;;;;;;;;;;4.30;99.90;;;;;;5110722;28;19924;-67
2022/11/18 14:50:42;;;;;;;;;;;4.10;99.90;;;;;;5095800;28;20054;-66
2022/11/18 14:53:10;;;;;;;;;;;4.00;99.90;;;;;;5099947;28;20015;-67
2022/11/18 14:55:35;;;;;;;;;;;4.00;99.90;;;;;;5115079;28;19920;-67
2022/11/18 14:58:01;;;;;;;;;;;4.00;99.90;;;;;;5115110;28;19970;-67
2022/11/18 15:00:26;;;;;;;;;;;4.00;99.90;;;;;;5100029;28;20383;-67
2022/11/18 15:02:52;;;;;;;;;;;4.00;99.90;;;;;;5109484;28;19920;-67
2022/11/18 15:05:17;;;;;;;;;;;3.90;99.90;;;;;;5096758;28;19920;-67